sensor_id;sensor_type;location;lat;lon;timestamp;P1;durP1;ratioP1;P2;durP2;ratioP2
68300;SDS011;55146;47.468;18.806;2023-04-06T00:00:42;17.63;;;9.13;;
68300;SDS011;55146;47.468;18.806;2023-04-06T00:03:07;20.87;;;10.00;;
68300;SDS011;55146;47.468;18.806;2023-04-06T00:05:33;20.20;;;10.20;;
68300;SDS011;55146;47.468;18.806;2023-04-06T00:07:58;15.63;;;8.65;;
68300;SDS011;55146;47.468;18.806;2023-04-06T00:10:24;21.17;;;10.90;;
68300;SDS011;55146;47.468;18.806;2023-04-06T00:12:49;16.73;;;9.35;;
68300;SDS011;55146;47.468;18.806;2023-04-06T00:15:15;17.17;;;9.57;;
68300;SDS011;55146;47.468;18.806;2023-04-06T00:17:40;19.30;;;10.13;;
68300;SDS011;55146;47.468;18.806;2023-04-06T00:20:06;16.67;;;9.63;;
68300;SDS011;55146;47.468;18.806;2023-04-06T00:22:32;17.23;;;9.38;;
68300;SDS011;55146;47.468;18.806;2023-04-06T00:24:57;20.77;;;9.43;;
68300;SDS011;55146;47.468;18.806;2023-04-06T00:27:22;18.00;;;9.07;;
68300;SDS011;55146;47.468;18.806;2023-04-06T00:29:48;16.00;;;9.37;;
68300;SDS011;55146;47.468;18.806;2023-04-06T00:32:13;17.97;;;9.17;;
68300;SDS011;55146;47.468;18.806;2023-04-06T00:34:38;19.23;;;9.50;;
68300;SDS011;55146;47.468;18.806;2023-04-06T00:37:04;17.20;;;9.90;;
68300;SDS011;55146;47.468;18.806;2023-04-06T00:39:29;18.07;;;8.30;;
68300;SDS011;55146;47.468;18.806;2023-04-06T00:41:54;17.47;;;9.60;;
68300;SDS011;55146;47.468;18.806;2023-04-06T00:44:21;18.12;;;10.25;;
68300;SDS011;55146;47.468;18.806;2023-04-06T00:46:47;15.70;;;9.07;;
68300;SDS011;55146;47.468;18.806;2023-04-06T00:49:12;17.30;;;8.43;;
68300;SDS011;55146;47.468;18.806;2023-04-06T00:51:37;16.40;;;8.57;;
68300;SDS011;55146;47.468;18.806;2023-04-06T00:54:03;17.20;;;10.40;;
68300;SDS011;55146;47.468;18.806;2023-04-06T00:56:28;16.70;;;8.27;;
68300;SDS011;55146;47.468;18.806;2023-04-06T00:58:54;16.98;;;9.30;;
68300;SDS011;55146;47.468;18.806;2023-04-06T01:01:20;18.20;;;8.80;;
68300;SDS011;55146;47.468;18.806;2023-04-06T01:03:45;19.33;;;9.77;;
68300;SDS011;55146;47.468;18.806;2023-04-06T01:06:13;20.90;;;11.43;;
68300;SDS011;55146;47.468;18.806;2023-04-06T01:08:39;21.05;;;9.88;;
68300;SDS011;55146;47.468;18.806;2023-04-06T01:11:04;18.43;;;8.97;;
68300;SDS011;55146;47.468;18.806;2023-04-06T01:13:30;17.13;;;10.03;;
68300;SDS011;55146;47.468;18.806;2023-04-06T01:15:55;21.17;;;10.93;;
68300;SDS011;55146;47.468;18.806;2023-04-06T01:18:27;17.70;;;9.88;;
68300;SDS011;55146;47.468;18.806;2023-04-06T01:20:53;16.20;;;8.83;;
68300;SDS011;55146;47.468;18.806;2023-04-06T01:23:18;19.65;;;10.07;;
68300;SDS011;55146;47.468;18.806;2023-04-06T01:25:44;16.27;;;8.67;;
68300;SDS011;55146;47.468;18.806;2023-04-06T01:28:09;17.00;;;9.77;;
68300;SDS011;55146;47.468;18.806;2023-04-06T01:30:34;21.27;;;10.07;;
68300;SDS011;55146;47.468;18.806;2023-04-06T01:33:00;18.63;;;10.57;;
68300;SDS011;55146;47.468;18.806;2023-04-06T01:35:26;25.80;;;11.45;;
68300;SDS011;55146;47.468;18.806;2023-04-06T01:37:52;33.20;;;13.20;;
68300;SDS011;55146;47.468;18.806;2023-04-06T01:40:17;40.80;;;15.23;;
68300;SDS011;55146;47.468;18.806;2023-04-06T01:42:43;43.50;;;15.43;;
68300;SDS011;55146;47.468;18.806;2023-04-06T01:45:08;43.50;;;14.63;;
68300;SDS011;55146;47.468;18.806;2023-04-06T01:47:34;42.25;;;16.30;;
68300;SDS011;55146;47.468;18.806;2023-04-06T01:49:59;39.80;;;16.00;;
68300;SDS011;55146;47.468;18.806;2023-04-06T01:52:25;41.63;;;15.07;;
68300;SDS011;55146;47.468;18.806;2023-04-06T01:54:50;57.17;;;18.43;;
68300;SDS011;55146;47.468;18.806;2023-04-06T01:57:15;49.10;;;18.80;;
68300;SDS011;55146;47.468;18.806;2023-04-06T01:59:41;46.53;;;15.63;;
68300;SDS011;55146;47.468;18.806;2023-04-06T02:02:06;46.47;;;16.30;;
68300;SDS011;55146;47.468;18.806;2023-04-06T02:04:31;60.47;;;18.50;;
68300;SDS011;55146;47.468;18.806;2023-04-06T02:06:57;44.33;;;16.03;;
68300;SDS011;55146;47.468;18.806;2023-04-06T02:09:22;51.00;;;16.00;;
68300;SDS011;55146;47.468;18.806;2023-04-06T02:11:47;31.50;;;12.63;;
68300;SDS011;55146;47.468;18.806;2023-04-06T02:14:13;34.70;;;13.37;;
68300;SDS011;55146;47.468;18.806;2023-04-06T02:16:38;23.20;;;11.17;;
68300;SDS011;55146;47.468;18.806;2023-04-06T02:19:03;25.15;;;12.37;;
68300;SDS011;55146;47.468;18.806;2023-04-06T02:21:29;23.43;;;10.43;;
68300;SDS011;55146;47.468;18.806;2023-04-06T02:23:54;27.23;;;12.03;;
68300;SDS011;55146;47.468;18.806;2023-04-06T02:26:20;29.00;;;12.47;;
68300;SDS011;55146;47.468;18.806;2023-04-06T02:28:45;24.63;;;12.20;;
68300;SDS011;55146;47.468;18.806;2023-04-06T02:31:11;26.50;;;12.27;;
68300;SDS011;55146;47.468;18.806;2023-04-06T02:33:36;24.67;;;12.50;;
68300;SDS011;55146;47.468;18.806;2023-04-06T02:36:02;28.70;;;12.95;;
68300;SDS011;55146;47.468;18.806;2023-04-06T02:38:27;28.67;;;13.70;;
68300;SDS011;55146;47.468;18.806;2023-04-06T02:40:53;29.37;;;13.63;;
68300;SDS011;55146;47.468;18.806;2023-04-06T02:43:18;28.23;;;11.63;;
68300;SDS011;55146;47.468;18.806;2023-04-06T02:45:44;22.75;;;10.50;;
68300;SDS011;55146;47.468;18.806;2023-04-06T02:48:09;19.50;;;10.77;;
68300;SDS011;55146;47.468;18.806;2023-04-06T02:50:35;20.67;;;10.00;;
68300;SDS011;55146;47.468;18.806;2023-04-06T02:53:00;16.87;;;9.77;;
68300;SDS011;55146;47.468;18.806;2023-04-06T02:55:25;19.57;;;10.33;;
68300;SDS011;55146;47.468;18.806;2023-04-06T02:57:51;18.12;;;9.13;;
68300;SDS011;55146;47.468;18.806;2023-04-06T03:00:16;15.00;;;9.33;;
68300;SDS011;55146;47.468;18.806;2023-04-06T03:02:42;16.63;;;10.00;;
68300;SDS011;55146;47.468;18.806;2023-04-06T03:05:07;15.57;;;9.93;;
68300;SDS011;55146;47.468;18.806;2023-04-06T03:07:33;14.18;;;9.02;;
68300;SDS011;55146;47.468;18.806;2023-04-06T03:09:58;16.73;;;9.80;;
68300;SDS011;55146;47.468;18.806;2023-04-06T03:12:23;16.80;;;8.80;;
68300;SDS011;55146;47.468;18.806;2023-04-06T03:14:49;19.43;;;8.73;;
68300;SDS011;55146;47.468;18.806;2023-04-06T03:17:14;14.90;;;8.67;;
68300;SDS011;55146;47.468;18.806;2023-04-06T03:19:39;16.77;;;9.07;;
68300;SDS011;55146;47.468;18.806;2023-04-06T03:22:05;21.40;;;9.30;;
68300;SDS011;55146;47.468;18.806;2023-04-06T03:24:30;17.17;;;9.47;;
68300;SDS011;55146;47.468;18.806;2023-04-06T03:26:56;17.87;;;8.93;;
68300;SDS011;55146;47.468;18.806;2023-04-06T03:29:21;15.30;;;8.50;;
68300;SDS011;55146;47.468;18.806;2023-04-06T03:31:47;14.73;;;8.93;;
68300;SDS011;55146;47.468;18.806;2023-04-06T03:34:12;16.55;;;9.02;;
68300;SDS011;55146;47.468;18.806;2023-04-06T03:36:37;16.50;;;8.90;;
68300;SDS011;55146;47.468;18.806;2023-04-06T03:39:03;14.67;;;9.13;;
68300;SDS011;55146;47.468;18.806;2023-04-06T03:41:29;14.00;;;9.20;;
68300;SDS011;55146;47.468;18.806;2023-04-06T03:43:54;19.90;;;9.93;;
68300;SDS011;55146;47.468;18.806;2023-04-06T03:46:19;16.47;;;9.53;;
68300;SDS011;55146;47.468;18.806;2023-04-06T03:48:45;17.50;;;9.47;;
68300;SDS011;55146;47.468;18.806;2023-04-06T03:51:12;16.35;;;8.90;;
68300;SDS011;55146;47.468;18.806;2023-04-06T03:53:38;17.43;;;9.93;;
68300;SDS011;55146;47.468;18.806;2023-04-06T03:56:03;20.13;;;9.63;;
68300;SDS011;55146;47.468;18.806;2023-04-06T03:58:29;18.17;;;8.65;;
68300;SDS011;55146;47.468;18.806;2023-04-06T04:00:54;19.30;;;9.60;;
68300;SDS011;55146;47.468;18.806;2023-04-06T04:03:19;17.07;;;9.00;;
68300;SDS011;55146;47.468;18.806;2023-04-06T04:05:46;15.93;;;9.30;;
68300;SDS011;55146;47.468;18.806;2023-04-06T04:08:11;17.33;;;10.10;;
68300;SDS011;55146;47.468;18.806;2023-04-06T04:10:37;17.97;;;10.00;;
68300;SDS011;55146;47.468;18.806;2023-04-06T04:13:02;15.70;;;9.07;;
68300;SDS011;55146;47.468;18.806;2023-04-06T04:15:27;16.17;;;9.40;;
68300;SDS011;55146;47.468;18.806;2023-04-06T04:17:53;16.83;;;8.50;;
68300;SDS011;55146;47.468;18.806;2023-04-06T04:20:18;17.17;;;9.67;;
68300;SDS011;55146;47.468;18.806;2023-04-06T04:22:43;17.92;;;9.95;;
68300;SDS011;55146;47.468;18.806;2023-04-06T04:25:09;14.87;;;8.23;;
68300;SDS011;55146;47.468;18.806;2023-04-06T04:27:35;17.50;;;9.18;;
68300;SDS011;55146;47.468;18.806;2023-04-06T04:30:00;20.70;;;8.65;;
68300;SDS011;55146;47.468;18.806;2023-04-06T04:32:26;14.93;;;9.67;;
68300;SDS011;55146;47.468;18.806;2023-04-06T04:34:52;17.58;;;9.75;;
68300;SDS011;55146;47.468;18.806;2023-04-06T04:37:18;14.33;;;9.23;;
68300;SDS011;55146;47.468;18.806;2023-04-06T04:39:44;17.67;;;8.60;;
68300;SDS011;55146;47.468;18.806;2023-04-06T04:42:10;18.07;;;9.50;;
68300;SDS011;55146;47.468;18.806;2023-04-06T04:44:35;19.90;;;9.23;;
68300;SDS011;55146;47.468;18.806;2023-04-06T04:47:00;20.17;;;9.93;;
68300;SDS011;55146;47.468;18.806;2023-04-06T04:49:26;15.23;;;9.23;;
68300;SDS011;55146;47.468;18.806;2023-04-06T04:51:51;19.87;;;10.03;;
68300;SDS011;55146;47.468;18.806;2023-04-06T04:54:17;17.75;;;9.45;;
68300;SDS011;55146;47.468;18.806;2023-04-06T04:56:43;17.80;;;9.73;;
68300;SDS011;55146;47.468;18.806;2023-04-06T04:59:08;16.90;;;9.53;;
68300;SDS011;55146;47.468;18.806;2023-04-06T05:01:33;16.37;;;8.97;;
68300;SDS011;55146;47.468;18.806;2023-04-06T05:03:59;15.40;;;9.40;;
68300;SDS011;55146;47.468;18.806;2023-04-06T05:06:24;25.23;;;11.67;;
68300;SDS011;55146;47.468;18.806;2023-04-06T05:08:50;19.30;;;10.40;;
68300;SDS011;55146;47.468;18.806;2023-04-06T05:11:15;18.33;;;9.88;;
68300;SDS011;55146;47.468;18.806;2023-04-06T05:13:41;20.77;;;11.37;;
68300;SDS011;55146;47.468;18.806;2023-04-06T05:16:06;21.43;;;11.60;;
68300;SDS011;55146;47.468;18.806;2023-04-06T05:18:31;21.33;;;11.50;;
68300;SDS011;55146;47.468;18.806;2023-04-06T05:20:57;23.80;;;12.00;;
68300;SDS011;55146;47.468;18.806;2023-04-06T05:23:22;19.60;;;11.90;;
68300;SDS011;55146;47.468;18.806;2023-04-06T05:25:48;21.83;;;12.73;;
68300;SDS011;55146;47.468;18.806;2023-04-06T05:28:13;23.87;;;11.47;;
68300;SDS011;55146;47.468;18.806;2023-04-06T05:30:40;21.65;;;11.52;;
68300;SDS011;55146;47.468;18.806;2023-04-06T05:33:07;19.05;;;11.82;;
68300;SDS011;55146;47.468;18.806;2023-04-06T05:35:32;28.43;;;12.33;;
68300;SDS011;55146;47.468;18.806;2023-04-06T05:37:58;23.13;;;11.10;;
68300;SDS011;55146;47.468;18.806;2023-04-06T05:40:23;19.10;;;10.40;;
68300;SDS011;55146;47.468;18.806;2023-04-06T05:42:49;29.27;;;13.13;;
68300;SDS011;55146;47.468;18.806;2023-04-06T05:45:14;19.85;;;11.00;;
68300;SDS011;55146;47.468;18.806;2023-04-06T05:47:42;24.75;;;11.57;;
68300;SDS011;55146;47.468;18.806;2023-04-06T05:50:09;23.07;;;10.47;;
68300;SDS011;55146;47.468;18.806;2023-04-06T05:52:35;22.60;;;11.45;;
68300;SDS011;55146;47.468;18.806;2023-04-06T05:55:00;19.57;;;10.17;;
68300;SDS011;55146;47.468;18.806;2023-04-06T05:57:25;19.80;;;11.27;;
68300;SDS011;55146;47.468;18.806;2023-04-06T05:59:51;20.83;;;10.77;;
68300;SDS011;55146;47.468;18.806;2023-04-06T06:02:16;18.83;;;10.88;;
68300;SDS011;55146;47.468;18.806;2023-04-06T06:04:41;16.37;;;9.37;;
68300;SDS011;55146;47.468;18.806;2023-04-06T06:07:07;19.03;;;11.63;;
68300;SDS011;55146;47.468;18.806;2023-04-06T06:09:32;16.63;;;10.87;;
68300;SDS011;55146;47.468;18.806;2023-04-06T06:11:57;17.47;;;10.70;;
68300;SDS011;55146;47.468;18.806;2023-04-06T06:14:23;20.13;;;11.57;;
68300;SDS011;55146;47.468;18.806;2023-04-06T06:16:48;18.98;;;11.32;;
68300;SDS011;55146;47.468;18.806;2023-04-06T06:19:14;19.13;;;10.90;;
68300;SDS011;55146;47.468;18.806;2023-04-06T06:21:39;22.87;;;12.03;;
68300;SDS011;55146;47.468;18.806;2023-04-06T06:24:05;19.77;;;11.70;;
68300;SDS011;55146;47.468;18.806;2023-04-06T06:26:31;16.67;;;9.80;;
68300;SDS011;55146;47.468;18.806;2023-04-06T06:28:56;22.87;;;11.23;;
68300;SDS011;55146;47.468;18.806;2023-04-06T06:31:21;19.60;;;11.50;;
68300;SDS011;55146;47.468;18.806;2023-04-06T06:33:48;23.20;;;12.43;;
68300;SDS011;55146;47.468;18.806;2023-04-06T06:36:19;23.33;;;11.73;;
68300;SDS011;55146;47.468;18.806;2023-04-06T06:38:44;21.70;;;11.68;;
68300;SDS011;55146;47.468;18.806;2023-04-06T06:41:10;23.73;;;12.17;;
68300;SDS011;55146;47.468;18.806;2023-04-06T06:43:36;18.50;;;11.70;;
68300;SDS011;55146;47.468;18.806;2023-04-06T06:46:01;19.30;;;12.10;;
68300;SDS011;55146;47.468;18.806;2023-04-06T06:48:27;18.42;;;11.43;;
68300;SDS011;55146;47.468;18.806;2023-04-06T06:50:52;26.13;;;12.97;;
68300;SDS011;55146;47.468;18.806;2023-04-06T06:53:18;20.20;;;12.13;;
68300;SDS011;55146;47.468;18.806;2023-04-06T06:55:44;20.73;;;13.25;;
68300;SDS011;55146;47.468;18.806;2023-04-06T06:58:10;20.80;;;13.03;;
68300;SDS011;55146;47.468;18.806;2023-04-06T07:00:35;23.53;;;14.20;;
68300;SDS011;55146;47.468;18.806;2023-04-06T07:03:00;23.35;;;13.25;;
68300;SDS011;55146;47.468;18.806;2023-04-06T07:05:26;21.57;;;11.93;;
68300;SDS011;55146;47.468;18.806;2023-04-06T07:07:51;23.23;;;13.40;;
68300;SDS011;55146;47.468;18.806;2023-04-06T07:10:17;24.13;;;14.30;;
68300;SDS011;55146;47.468;18.806;2023-04-06T07:12:42;26.77;;;13.03;;
68300;SDS011;55146;47.468;18.806;2023-04-06T07:15:08;20.02;;;12.82;;
68300;SDS011;55146;47.468;18.806;2023-04-06T07:17:33;21.13;;;13.20;;
68300;SDS011;55146;47.468;18.806;2023-04-06T07:19:59;20.97;;;10.97;;
68300;SDS011;55146;47.468;18.806;2023-04-06T07:22:24;19.57;;;12.30;;
68300;SDS011;55146;47.468;18.806;2023-04-06T07:24:49;18.80;;;12.10;;
68300;SDS011;55146;47.468;18.806;2023-04-06T07:27:15;20.87;;;11.77;;
68300;SDS011;55146;47.468;18.806;2023-04-06T07:29:41;19.65;;;11.35;;
68300;SDS011;55146;47.468;18.806;2023-04-06T07:32:06;17.83;;;10.37;;
68300;SDS011;55146;47.468;18.806;2023-04-06T07:34:32;21.80;;;10.60;;
68300;SDS011;55146;47.468;18.806;2023-04-06T07:36:57;19.20;;;11.30;;
68300;SDS011;55146;47.468;18.806;2023-04-06T07:39:23;18.25;;;10.60;;
68300;SDS011;55146;47.468;18.806;2023-04-06T07:41:48;24.43;;;11.83;;
68300;SDS011;55146;47.468;18.806;2023-04-06T07:44:13;16.93;;;9.47;;
68300;SDS011;55146;47.468;18.806;2023-04-06T07:46:39;17.87;;;10.27;;
68300;SDS011;55146;47.468;18.806;2023-04-06T07:49:04;20.12;;;9.05;;
68300;SDS011;55146;47.468;18.806;2023-04-06T07:51:30;18.43;;;9.70;;
68300;SDS011;55146;47.468;18.806;2023-04-06T07:53:56;17.00;;;10.83;;
68300;SDS011;55146;47.468;18.806;2023-04-06T07:56:21;18.10;;;10.18;;
68300;SDS011;55146;47.468;18.806;2023-04-06T07:58:46;17.43;;;9.80;;
68300;SDS011;55146;47.468;18.806;2023-04-06T08:01:12;16.53;;;9.60;;
68300;SDS011;55146;47.468;18.806;2023-04-06T08:03:38;16.77;;;10.65;;
68300;SDS011;55146;47.468;18.806;2023-04-06T08:06:03;14.30;;;9.27;;
68300;SDS011;55146;47.468;18.806;2023-04-06T08:08:30;18.55;;;9.63;;
68300;SDS011;55146;47.468;18.806;2023-04-06T08:10:55;12.77;;;8.60;;
68300;SDS011;55146;47.468;18.806;2023-04-06T08:13:21;15.93;;;9.88;;
68300;SDS011;55146;47.468;18.806;2023-04-06T08:15:46;15.73;;;9.13;;
68300;SDS011;55146;47.468;18.806;2023-04-06T08:18:11;17.40;;;8.37;;
68300;SDS011;55146;47.468;18.806;2023-04-06T08:20:37;18.87;;;9.30;;
68300;SDS011;55146;47.468;18.806;2023-04-06T08:23:03;16.08;;;8.35;;
68300;SDS011;55146;47.468;18.806;2023-04-06T08:25:29;16.37;;;8.97;;
68300;SDS011;55146;47.468;18.806;2023-04-06T08:27:54;16.00;;;8.63;;
68300;SDS011;55146;47.468;18.806;2023-04-06T08:30:20;16.27;;;8.85;;
68300;SDS011;55146;47.468;18.806;2023-04-06T08:32:46;15.43;;;9.00;;
68300;SDS011;55146;47.468;18.806;2023-04-06T08:35:11;22.63;;;9.13;;
68300;SDS011;55146;47.468;18.806;2023-04-06T08:37:37;17.13;;;9.30;;
68300;SDS011;55146;47.468;18.806;2023-04-06T08:40:02;12.93;;;8.50;;
68300;SDS011;55146;47.468;18.806;2023-04-06T08:42:28;14.80;;;8.00;;
68300;SDS011;55146;47.468;18.806;2023-04-06T08:44:57;14.38;;;8.45;;
68300;SDS011;55146;47.468;18.806;2023-04-06T08:47:23;14.47;;;7.73;;
68300;SDS011;55146;47.468;18.806;2023-04-06T08:49:48;13.30;;;7.47;;
68300;SDS011;55146;47.468;18.806;2023-04-06T08:52:15;14.75;;;8.88;;
68300;SDS011;55146;47.468;18.806;2023-04-06T08:54:42;14.77;;;7.85;;
68300;SDS011;55146;47.468;18.806;2023-04-06T08:57:08;14.30;;;7.93;;
68300;SDS011;55146;47.468;18.806;2023-04-06T08:59:33;12.67;;;8.10;;
68300;SDS011;55146;47.468;18.806;2023-04-06T09:02:00;11.52;;;8.10;;
68300;SDS011;55146;47.468;18.806;2023-04-06T09:04:30;13.55;;;8.75;;
68300;SDS011;55146;47.468;18.806;2023-04-06T09:06:57;14.90;;;7.82;;
68300;SDS011;55146;47.468;18.806;2023-04-06T09:09:22;15.30;;;9.23;;
68300;SDS011;55146;47.468;18.806;2023-04-06T09:11:50;13.13;;;8.20;;
68300;SDS011;55146;47.468;18.806;2023-04-06T09:14:16;16.95;;;7.90;;
68300;SDS011;55146;47.468;18.806;2023-04-06T09:16:57;13.63;;;7.13;;
68300;SDS011;55146;47.468;18.806;2023-04-06T09:19:23;13.90;;;7.95;;
68300;SDS011;55146;47.468;18.806;2023-04-06T09:21:48;17.90;;;7.93;;
68300;SDS011;55146;47.468;18.806;2023-04-06T09:24:14;13.90;;;8.13;;
68300;SDS011;55146;47.468;18.806;2023-04-06T09:26:45;12.97;;;8.20;;
68300;SDS011;55146;47.468;18.806;2023-04-06T09:29:21;13.30;;;7.95;;
68300;SDS011;55146;47.468;18.806;2023-04-06T09:31:48;13.23;;;7.43;;
68300;SDS011;55146;47.468;18.806;2023-04-06T09:34:20;11.73;;;7.77;;
68300;SDS011;55146;47.468;18.806;2023-04-06T09:36:47;14.35;;;7.78;;
68300;SDS011;55146;47.468;18.806;2023-04-06T09:39:13;13.20;;;7.33;;
68300;SDS011;55146;47.468;18.806;2023-04-06T09:41:39;13.13;;;8.38;;
68300;SDS011;55146;47.468;18.806;2023-04-06T09:44:05;13.97;;;7.23;;
68300;SDS011;55146;47.468;18.806;2023-04-06T09:46:35;13.20;;;7.12;;
68300;SDS011;55146;47.468;18.806;2023-04-06T09:49:03;16.08;;;8.10;;
68300;SDS011;55146;47.468;18.806;2023-04-06T09:51:39;12.00;;;6.85;;
68300;SDS011;55146;47.468;18.806;2023-04-06T09:54:05;22.40;;;8.10;;
68300;SDS011;55146;47.468;18.806;2023-04-06T09:56:56;13.73;;;7.60;;
68300;SDS011;55146;47.468;18.806;2023-04-06T10:01:55;15.23;;;7.28;;
68300;SDS011;55146;47.468;18.806;2023-04-06T10:07:18;14.03;;;7.93;;
68300;SDS011;55146;47.468;18.806;2023-04-06T10:09:44;14.52;;;8.80;;
68300;SDS011;55146;47.468;18.806;2023-04-06T10:12:11;16.83;;;7.65;;
68300;SDS011;55146;47.468;18.806;2023-04-06T10:14:38;15.32;;;7.80;;
68300;SDS011;55146;47.468;18.806;2023-04-06T10:17:06;13.17;;;7.23;;
68300;SDS011;55146;47.468;18.806;2023-04-06T10:19:49;14.18;;;7.43;;
68300;SDS011;55146;47.468;18.806;2023-04-06T10:22:22;13.57;;;7.50;;
68300;SDS011;55146;47.468;18.806;2023-04-06T10:24:51;12.10;;;6.87;;
68300;SDS011;55146;47.468;18.806;2023-04-06T10:27:16;15.53;;;7.63;;
68300;SDS011;55146;47.468;18.806;2023-04-06T10:29:52;15.90;;;7.47;;
68300;SDS011;55146;47.468;18.806;2023-04-06T10:32:18;11.33;;;6.93;;
68300;SDS011;55146;47.468;18.806;2023-04-06T10:34:43;12.63;;;7.77;;
68300;SDS011;55146;47.468;18.806;2023-04-06T10:37:15;18.80;;;8.13;;
68300;SDS011;55146;47.468;18.806;2023-04-06T10:40:17;17.08;;;7.40;;
68300;SDS011;55146;47.468;18.806;2023-04-06T10:42:42;11.17;;;6.90;;
68300;SDS011;55146;47.468;18.806;2023-04-06T10:45:18;14.73;;;6.68;;
68300;SDS011;55146;47.468;18.806;2023-04-06T10:47:45;14.15;;;7.70;;
68300;SDS011;55146;47.468;18.806;2023-04-06T10:50:11;15.87;;;7.50;;
68300;SDS011;55146;47.468;18.806;2023-04-06T10:52:40;15.20;;;8.00;;
68300;SDS011;55146;47.468;18.806;2023-04-06T10:55:06;18.63;;;8.60;;
68300;SDS011;55146;47.468;18.806;2023-04-06T10:57:35;13.85;;;7.87;;
68300;SDS011;55146;47.468;18.806;2023-04-06T11:00:02;15.20;;;8.35;;
68300;SDS011;55146;47.468;18.806;2023-04-06T11:02:31;13.88;;;7.90;;
68300;SDS011;55146;47.468;18.806;2023-04-06T11:04:57;19.33;;;9.50;;
68300;SDS011;55146;47.468;18.806;2023-04-06T11:07:24;19.20;;;9.27;;
68300;SDS011;55146;47.468;18.806;2023-04-06T11:09:51;11.90;;;7.37;;
68300;SDS011;55146;47.468;18.806;2023-04-06T11:12:24;15.52;;;8.05;;
68300;SDS011;55146;47.468;18.806;2023-04-06T11:17:29;12.70;;;8.43;;
68300;SDS011;55146;47.468;18.806;2023-04-06T11:19:59;12.20;;;8.10;;
68300;SDS011;55146;47.468;18.806;2023-04-06T11:22:25;17.67;;;9.70;;
68300;SDS011;55146;47.468;18.806;2023-04-06T11:24:51;19.15;;;8.93;;
68300;SDS011;55146;47.468;18.806;2023-04-06T11:27:17;14.18;;;8.27;;
68300;SDS011;55146;47.468;18.806;2023-04-06T11:29:44;13.13;;;7.30;;
68300;SDS011;55146;47.468;18.806;2023-04-06T11:32:19;15.15;;;8.65;;
68300;SDS011;55146;47.468;18.806;2023-04-06T11:34:46;16.25;;;8.75;;
68300;SDS011;55146;47.468;18.806;2023-04-06T11:37:12;15.10;;;8.70;;
68300;SDS011;55146;47.468;18.806;2023-04-06T11:39:38;12.83;;;8.77;;
68300;SDS011;55146;47.468;18.806;2023-04-06T11:42:05;13.85;;;7.87;;
68300;SDS011;55146;47.468;18.806;2023-04-06T11:44:32;16.42;;;7.60;;
68300;SDS011;55146;47.468;18.806;2023-04-06T11:46:58;11.90;;;7.13;;
68300;SDS011;55146;47.468;18.806;2023-04-06T11:49:30;11.73;;;7.37;;
68300;SDS011;55146;47.468;18.806;2023-04-06T11:51:57;10.77;;;6.55;;
68300;SDS011;55146;47.468;18.806;2023-04-06T11:54:30;10.82;;;7.40;;
68300;SDS011;55146;47.468;18.806;2023-04-06T11:56:55;13.90;;;7.40;;
68300;SDS011;55146;47.468;18.806;2023-04-06T11:59:21;13.90;;;7.17;;
68300;SDS011;55146;47.468;18.806;2023-04-06T12:01:47;12.43;;;7.43;;
68300;SDS011;55146;47.468;18.806;2023-04-06T12:04:13;12.70;;;7.70;;
68300;SDS011;55146;47.468;18.806;2023-04-06T12:06:39;12.05;;;7.78;;
68300;SDS011;55146;47.468;18.806;2023-04-06T12:09:05;12.77;;;7.77;;
68300;SDS011;55146;47.468;18.806;2023-04-06T12:11:30;20.30;;;7.73;;
68300;SDS011;55146;47.468;18.806;2023-04-06T12:13:55;14.38;;;8.35;;
68300;SDS011;55146;47.468;18.806;2023-04-06T12:16:21;12.43;;;7.70;;
68300;SDS011;55146;47.468;18.806;2023-04-06T12:18:46;11.70;;;7.20;;
68300;SDS011;55146;47.468;18.806;2023-04-06T12:21:11;14.40;;;8.60;;
68300;SDS011;55146;47.468;18.806;2023-04-06T12:23:37;13.50;;;7.20;;
68300;SDS011;55146;47.468;18.806;2023-04-06T12:26:02;12.53;;;7.70;;
68300;SDS011;55146;47.468;18.806;2023-04-06T12:28:28;15.18;;;7.50;;
68300;SDS011;55146;47.468;18.806;2023-04-06T12:30:54;14.17;;;7.47;;
68300;SDS011;55146;47.468;18.806;2023-04-06T12:33:20;11.43;;;7.68;;
68300;SDS011;55146;47.468;18.806;2023-04-06T12:35:46;13.50;;;7.57;;
68300;SDS011;55146;47.468;18.806;2023-04-06T12:38:11;12.70;;;7.63;;
68300;SDS011;55146;47.468;18.806;2023-04-06T12:40:37;14.43;;;7.78;;
68300;SDS011;55146;47.468;18.806;2023-04-06T12:43:03;11.60;;;7.10;;
68300;SDS011;55146;47.468;18.806;2023-04-06T12:45:30;11.95;;;7.35;;
68300;SDS011;55146;47.468;18.806;2023-04-06T12:47:55;12.83;;;7.27;;
68300;SDS011;55146;47.468;18.806;2023-04-06T12:50:21;13.05;;;7.45;;
68300;SDS011;55146;47.468;18.806;2023-04-06T12:52:47;11.93;;;7.43;;
68300;SDS011;55146;47.468;18.806;2023-04-06T12:55:12;12.27;;;7.00;;
68300;SDS011;55146;47.468;18.806;2023-04-06T12:57:37;12.80;;;6.23;;
68300;SDS011;55146;47.468;18.806;2023-04-06T13:00:03;14.73;;;8.00;;
68300;SDS011;55146;47.468;18.806;2023-04-06T13:02:30;15.88;;;7.93;;
68300;SDS011;55146;47.468;18.806;2023-04-06T13:04:55;11.00;;;6.57;;
68300;SDS011;55146;47.468;18.806;2023-04-06T13:07:21;14.80;;;7.73;;
68300;SDS011;55146;47.468;18.806;2023-04-06T13:09:46;11.90;;;7.00;;
68300;SDS011;55146;47.468;18.806;2023-04-06T13:12:14;12.27;;;7.80;;
68300;SDS011;55146;47.468;18.806;2023-04-06T13:14:39;14.37;;;7.80;;
68300;SDS011;55146;47.468;18.806;2023-04-06T13:17:05;11.60;;;6.80;;
68300;SDS011;55146;47.468;18.806;2023-04-06T13:19:31;12.73;;;8.25;;
68300;SDS011;55146;47.468;18.806;2023-04-06T13:21:57;18.95;;;7.60;;
68300;SDS011;55146;47.468;18.806;2023-04-06T13:24:22;13.20;;;7.20;;
68300;SDS011;55146;47.468;18.806;2023-04-06T13:26:48;12.33;;;7.23;;
68300;SDS011;55146;47.468;18.806;2023-04-06T13:29:14;15.50;;;7.30;;
68300;SDS011;55146;47.468;18.806;2023-04-06T13:31:39;12.77;;;7.60;;
68300;SDS011;55146;47.468;18.806;2023-04-06T13:34:05;12.90;;;7.68;;
68300;SDS011;55146;47.468;18.806;2023-04-06T13:36:30;11.63;;;8.00;;
68300;SDS011;55146;47.468;18.806;2023-04-06T13:38:57;10.10;;;7.05;;
68300;SDS011;55146;47.468;18.806;2023-04-06T13:41:24;14.43;;;6.62;;
68300;SDS011;55146;47.468;18.806;2023-04-06T13:43:51;17.87;;;7.05;;
68300;SDS011;55146;47.468;18.806;2023-04-06T13:46:17;16.23;;;7.37;;
68300;SDS011;55146;47.468;18.806;2023-04-06T13:48:43;11.60;;;6.68;;
68300;SDS011;55146;47.468;18.806;2023-04-06T13:51:12;13.40;;;7.80;;
68300;SDS011;55146;47.468;18.806;2023-04-06T13:53:38;16.37;;;7.28;;
68300;SDS011;55146;47.468;18.806;2023-04-06T13:56:04;11.20;;;6.97;;
68300;SDS011;55146;47.468;18.806;2023-04-06T13:58:29;12.60;;;6.53;;
68300;SDS011;55146;47.468;18.806;2023-04-06T14:01:01;12.00;;;6.05;;
68300;SDS011;55146;47.468;18.806;2023-04-06T14:03:34;11.95;;;6.60;;
68300;SDS011;55146;47.468;18.806;2023-04-06T14:06:11;12.27;;;7.07;;
68300;SDS011;55146;47.468;18.806;2023-04-06T14:08:37;10.73;;;6.65;;
68300;SDS011;55146;47.468;18.806;2023-04-06T14:11:03;10.40;;;6.87;;
68300;SDS011;55146;47.468;18.806;2023-04-06T14:13:28;12.50;;;6.68;;
68300;SDS011;55146;47.468;18.806;2023-04-06T14:15:53;10.07;;;6.60;;
68300;SDS011;55146;47.468;18.806;2023-04-06T14:18:20;9.80;;;5.73;;
68300;SDS011;55146;47.468;18.806;2023-04-06T14:20:53;10.35;;;6.25;;